Time;durP1;ratioP1;P1;durP2;ratioP2;P2;SDS_P1;SDS_P2;PMS_P1;PMS_P2;Temp;Humidity;BMP_temperature;BMP_pressure;BME280_temperature;BME280_humidity;BME280_pressure;Samples;Min_cycle;Max_cycle;Signal;HPM_P1;HPM_P2
2023/05/31 00:01:34;;;;;;;3.53;1.70;;;16.90;61.90;;;;;;5075462;28;20714;-61
2023/05/31 00:04:00;;;;;;;3.13;1.48;;;16.90;62.10;;;;;;5075474;28;20201;-61
2023/05/31 00:06:27;;;;;;;4.13;1.67;;;16.90;61.90;;;;;;5075055;28;20212;-61
2023/05/31 00:08:55;;;;;;;3.70;1.90;;;17.00;61.80;;;;;;5075072;28;20221;-62
2023/05/31 00:11:22;;;;;;;4.97;1.52;;;17.00;61.80;;;;;;5074819;28;20236;-61
2023/05/31 00:13:49;;;;;;;3.30;1.50;;;16.90;61.90;;;;;;5075572;28;20245;-59
2023/05/31 00:16:15;;;;;;;4.63;1.80;;;17.00;62.80;;;;;;5075153;28;20204;-60
2023/05/31 00:18:42;;;;;;;4.22;1.90;;;16.90;61.80;;;;;;5074866;28;20201;-60
2023/05/31 00:21:09;;;;;;;6.03;1.70;;;16.80;61.90;;;;;;5075094;28;20252;-59
2023/05/31 00:23:36;;;;;;;3.70;1.50;;;16.80;62.20;;;;;;5074820;28;20398;-62
2023/05/31 00:26:04;;;;;;;3.50;1.77;;;16.80;62.30;;;;;;5074658;28;20204;-61
2023/05/31 00:28:30;;;;;;;4.43;1.70;;;16.70;62.40;;;;;;5074627;28;20225;-61
2023/05/31 00:30:57;;;;;;;3.15;1.70;;;16.70;62.50;;;;;;5074580;28;20757;-60
2023/05/31 00:33:24;;;;;;;3.50;1.60;;;16.80;62.60;;;;;;5074611;28;20200;-60
2023/05/31 00:35:51;;;;;;;2.97;1.73;;;16.80;62.60;;;;;;5074489;28;20705;-62
2023/05/31 00:38:17;;;;;;;2.95;1.58;;;16.70;62.60;;;;;;5074658;28;20209;-60
2023/05/31 00:40:47;;;;;;;3.22;1.75;;;16.70;62.60;;;;;;5074424;28;20232;-62
2023/05/31 00:43:15;;;;;;;6.00;2.13;;;16.70;62.80;;;;;;5074451;28;20208;-60
2023/05/31 00:45:41;;;;;;;5.50;1.70;;;16.60;63.00;;;;;;5074312;28;20212;-59
2023/05/31 00:48:08;;;;;;;3.60;1.80;;;16.60;63.30;;;;;;5074600;28;20205;-61
2023/05/31 00:50:35;;;;;;;3.72;1.80;;;16.50;63.40;;;;;;5074711;28;20316;-61
2023/05/31 00:53:04;;;;;;;4.95;1.92;;;16.50;63.60;;;;;;5074418;28;20567;-61
2023/05/31 00:55:33;;;;;;;4.95;1.55;;;16.50;63.70;;;;;;5074313;28;20205;-61
2023/05/31 00:58:00;;;;;;;2.88;1.90;;;16.50;63.80;;;;;;5074231;28;20237;-61
2023/05/31 01:00:28;;;;;;;5.22;2.10;;;16.50;63.80;;;;;;5074235;28;20209;-60
2023/05/31 01:02:55;;;;;;;4.25;1.90;;;16.40;64.20;;;;;;5074212;28;20201;-60
2023/05/31 01:05:22;;;;;;;4.13;1.58;;;16.40;64.30;;;;;;5073749;28;20209;-62
2023/05/31 01:07:49;;;;;;;4.80;1.63;;;16.40;64.40;;;;;;5073634;28;20205;-61
2023/05/31 01:10:15;;;;;;;4.60;2.08;;;16.30;64.50;;;;;;5072921;28;20220;-60
2023/05/31 01:12:53;;;;;;;3.97;2.17;;;16.30;64.80;;;;;;5097978;22;20229;-68
2023/05/31 01:15:24;;;;;;;3.95;2.00;;;16.40;64.70;;;;;;5090212;28;20200;-69
2023/05/31 01:17:59;;;;;;;4.28;1.95;;;16.30;64.60;;;;;;5093580;28;20212;-66
2023/05/31 01:20:32;;;;;;;6.15;1.60;;;16.30;64.80;;;;;;5093631;28;20204;-67
2023/05/31 01:23:10;;;;;;;3.05;1.77;;;16.20;64.90;;;;;;5073500;28;20259;-66
2023/05/31 01:25:57;;;;;;;4.85;2.00;;;16.20;65.10;;;;;;5073474;28;20579;-66
2023/05/31 01:28:26;;;;;;;5.53;1.88;;;16.10;65.40;;;;;;5073223;28;20208;-68
2023/05/31 01:30:56;;;;;;;4.00;1.60;;;16.10;65.40;;;;;;5072982;28;20224;-67
2023/05/31 01:33:23;;;;;;;4.50;1.83;;;16.00;65.30;;;;;;5073059;28;20205;-67
2023/05/31 01:35:51;;;;;;;4.03;1.58;;;16.00;65.70;;;;;;5072655;28;20258;-67
2023/05/31 01:38:17;;;;;;;3.63;1.52;;;15.90;65.80;;;;;;5073137;28;20209;-67
2023/05/31 01:40:44;;;;;;;2.90;1.80;;;16.00;65.80;;;;;;5073125;28;20250;-67
2023/05/31 01:43:13;;;;;;;4.30;1.90;;;15.90;65.60;;;;;;5073116;28;20213;-66
2023/05/31 01:45:41;;;;;;;3.92;1.73;;;16.00;65.70;;;;;;5073059;28;20205;-66
2023/05/31 01:48:10;;;;;;;2.22;1.67;;;16.00;65.50;;;;;;5072658;28;20581;-67
2023/05/31 01:50:40;;;;;;;4.45;1.85;;;16.00;65.60;;;;;;5072801;28;20231;-67
2023/05/31 01:53:07;;;;;;;3.90;1.73;;;16.00;66.00;;;;;;5072885;28;20212;-67
2023/05/31 01:55:33;;;;;;;4.88;1.85;;;16.00;65.70;;;;;;5072676;28;20673;-67
2023/05/31 01:58:02;;;;;;;4.30;1.45;;;16.00;65.70;;;;;;5072547;28;20209;-68
2023/05/31 02:00:29;;;;;;;4.28;1.70;;;16.00;65.80;;;;;;5073108;28;20200;-68
2023/05/31 02:02:58;;;;;;;2.05;1.45;;;15.90;65.60;;;;;;5072940;28;20304;-68
2023/05/31 02:05:25;;;;;;;4.57;1.60;;;15.90;65.80;;;;;;5072853;28;20204;-66
2023/05/31 02:07:53;;;;;;;3.75;1.77;;;15.90;65.60;;;;;;5072794;28;20209;-66
2023/05/31 02:10:20;;;;;;;3.47;1.80;;;15.90;65.70;;;;;;5072463;28;20286;-67
2023/05/31 02:12:50;;;;;;;3.95;1.42;;;15.90;65.30;;;;;;5072366;28;20243;-67
2023/05/31 02:15:19;;;;;;;2.28;1.60;;;15.90;65.80;;;;;;5072241;28;20231;-67
2023/05/31 02:17:50;;;;;;;2.22;1.52;;;15.90;65.70;;;;;;5072170;28;20579;-66
2023/05/31 02:20:19;;;;;;;11.30;1.95;;;15.90;65.70;;;;;;5071398;28;20558;-68
2023/05/31 02:22:46;;;;;;;4.00;1.60;;;15.90;65.70;;;;;;5072099;28;20232;-68
2023/05/31 02:25:14;;;;;;;3.80;1.83;;;15.90;65.70;;;;;;5072295;28;20633;-68
2023/05/31 02:27:41;;;;;;;3.90;1.70;;;15.90;65.80;;;;;;5072064;28;20231;-68
2023/05/31 02:30:10;;;;;;;7.03;1.67;;;15.90;65.90;;;;;;5071846;28;20225;-68
2023/05/31 02:32:37;;;;;;;7.28;1.90;;;15.90;65.90;;;;;;5072451;28;20306;-68
2023/05/31 02:35:05;;;;;;;2.63;1.42;;;15.90;65.90;;;;;;5072060;28;20205;-68
2023/05/31 02:37:34;;;;;;;2.30;1.70;;;15.90;65.90;;;;;;5071701;28;20205;-67
2023/05/31 02:40:00;;;;;;;4.57;1.88;;;15.90;65.80;;;;;;5071965;28;20208;-67
2023/05/31 02:42:27;;;;;;;3.22;1.42;;;15.90;66.00;;;;;;5071821;28;20228;-68
2023/05/31 02:44:54;;;;;;;4.10;1.90;;;15.90;66.20;;;;;;5071907;28;20220;-68
2023/05/31 02:47:20;;;;;;;3.92;2.33;;;15.90;66.80;;;;;;5071553;28;20213;-67
2023/05/31 02:49:47;;;;;;;5.82;2.13;;;15.90;67.40;;;;;;5071684;28;20224;-67
2023/05/31 02:52:14;;;;;;;2.30;1.80;;;15.80;67.60;;;;;;5071471;28;20274;-66
2023/05/31 02:54:42;;;;;;;2.20;1.35;;;15.70;67.70;;;;;;5071964;28;20220;-67
2023/05/31 02:57:09;;;;;;;5.82;1.90;;;15.60;67.90;;;;;;5071534;28;20216;-68
2023/05/31 02:59:36;;;;;;;2.80;1.67;;;15.60;68.00;;;;;;5071684;28;20200;-68
2023/05/31 03:02:03;;;;;;;2.57;1.67;;;15.60;68.10;;;;;;5071644;28;20236;-67
2023/05/31 03:04:30;;;;;;;5.50;1.70;;;15.50;68.60;;;;;;5071525;28;20205;-68
2023/05/31 03:06:57;;;;;;;3.17;1.37;;;15.40;68.70;;;;;;5071065;28;20209;-67
2023/05/31 03:09:24;;;;;;;5.50;1.80;;;15.40;69.00;;;;;;5071200;28;20701;-67
2023/05/31 03:11:52;;;;;;;3.50;1.70;;;15.30;69.10;;;;;;5071291;28;20233;-68
2023/05/31 03:14:19;;;;;;;2.60;1.60;;;15.20;69.20;;;;;;5071371;28;20623;-68
2023/05/31 03:16:45;;;;;;;4.83;1.90;;;15.20;69.40;;;;;;5071407;28;20208;-67
2023/05/31 03:19:13;;;;;;;6.27;2.03;;;15.10;69.70;;;;;;5071161;28;20282;-67
2023/05/31 03:21:40;;;;;;;2.70;1.87;;;15.00;69.60;;;;;;5071157;28;20786;-67
2023/05/31 03:24:06;;;;;;;4.17;1.80;;;15.00;69.80;;;;;;5071347;28;20255;-67
2023/05/31 03:26:33;;;;;;;2.92;1.67;;;15.30;70.20;;;;;;5071036;28;20209;-67
2023/05/31 03:29:01;;;;;;;4.03;1.80;;;15.00;70.00;;;;;;5071282;28;20205;-67
2023/05/31 03:31:29;;;;;;;3.40;1.60;;;15.00;69.90;;;;;;5070809;28;20316;-67
2023/05/31 03:33:56;;;;;;;6.57;1.93;;;15.00;69.70;;;;;;5070957;28;20729;-67
2023/05/31 03:36:22;;;;;;;5.80;1.63;;;15.10;69.60;;;;;;5070912;28;20240;-67
2023/05/31 03:38:49;;;;;;;5.10;2.00;;;15.10;69.70;;;;;;5071269;28;20205;-67
2023/05/31 03:41:16;;;;;;;4.27;1.47;;;15.10;69.60;;;;;;5071135;28;20220;-67
2023/05/31 03:43:43;;;;;;;2.50;1.87;;;15.10;69.50;;;;;;5070989;28;20232;-67
2023/05/31 03:46:11;;;;;;;3.40;1.60;;;15.10;69.50;;;;;;5070735;28;20271;-67
2023/05/31 03:48:38;;;;;;;5.27;2.03;;;15.20;69.70;;;;;;5071466;28;20205;-67
2023/05/31 03:51:05;;;;;;;4.57;1.87;;;15.20;69.70;;;;;;5070868;28;20233;-68
2023/05/31 03:53:32;;;;;;;3.20;1.73;;;15.20;69.70;;;;;;5071306;28;20670;-68
2023/05/31 03:55:58;;;;;;;3.40;2.10;;;15.20;69.80;;;;;;5070835;28;20204;-67
2023/05/31 03:58:25;;;;;;;4.73;1.63;;;15.10;70.20;;;;;;5070850;28;20590;-67
2023/05/31 04:00:52;;;;;;;4.90;2.17;;;15.20;70.30;;;;;;5070620;28;20645;-67
2023/05/31 04:03:20;;;;;;;2.50;1.93;;;15.20;70.30;;;;;;5070887;28;20270;-67
2023/05/31 04:05:47;;;;;;;4.00;1.70;;;15.20;70.30;;;;;;5070624;28;20228;-67
2023/05/31 04:08:14;;;;;;;2.67;1.63;;;15.30;70.10;;;;;;5070760;28;20560;-67
2023/05/31 04:10:41;;;;;;;3.30;1.77;;;15.30;69.90;;;;;;5070701;28;20282;-67
2023/05/31 04:13:08;;;;;;;3.57;2.03;;;15.30;70.10;;;;;;5070612;28;20611;-67
2023/05/31 04:15:36;;;;;;;4.30;2.00;;;15.30;70.10;;;;;;5070621;28;20258;-67
2023/05/31 04:18:02;;;;;;;2.80;1.60;;;15.30;70.10;;;;;;5070548;28;20285;-67
2023/05/31 04:20:31;;;;;;;3.17;1.83;;;15.40;70.20;;;;;;5070578;28;20201;-67
2023/05/31 04:22:57;;;;;;;6.27;2.00;;;15.40;70.20;;;;;;5070674;28;20241;-67
2023/05/31 04:25:24;;;;;;;3.87;1.70;;;15.40;70.30;;;;;;5070701;28;20219;-67
2023/05/31 04:27:51;;;;;;;4.60;1.80;;;15.50;70.60;;;;;;5070307;28;20200;-67
2023/05/31 04:30:18;;;;;;;4.70;1.70;;;15.50;70.40;;;;;;5070379;28;20229;-67
2023/05/31 04:32:45;;;;;;;3.90;1.77;;;15.60;70.60;;;;;;5070440;28;20287;-67
2023/05/31 04:35:11;;;;;;;2.97;1.80;;;15.60;70.70;;;;;;5070745;28;20212;-67
2023/05/31 04:37:40;;;;;;;2.72;1.50;;;15.60;70.70;;;;;;5070561;28;20205;-67
2023/05/31 04:40:09;;;;;;;4.87;1.90;;;15.70;70.80;;;;;;5070469;28;20287;-67
2023/05/31 04:42:36;;;;;;;3.38;1.70;;;15.70;70.80;;;;;;5070217;28;20231;-67
2023/05/31 04:45:04;;;;;;;4.78;2.22;;;15.70;71.20;;;;;;5072952;28;20235;-67
2023/05/31 04:47:31;;;;;;;5.00;1.77;;;15.80;70.90;;;;;;5073849;28;20674;-67
2023/05/31 04:49:58;;;;;;;4.10;1.70;;;15.90;71.00;;;;;;5074020;28;20221;-67
2023/05/31 04:52:26;;;;;;;6.30;2.07;;;15.90;71.00;;;;;;5073879;28;20263;-67
2023/05/31 04:54:54;;;;;;;3.08;1.80;;;16.00;70.70;;;;;;5073696;28;20569;-67
2023/05/31 04:57:22;;;;;;;2.35;1.50;;;16.20;70.70;;;;;;5073593;28;20208;-67
2023/05/31 04:59:48;;;;;;;4.80;1.98;;;16.40;70.60;;;;;;5073704;28;20227;-68
2023/05/31 05:02:15;;;;;;;5.50;1.90;;;16.70;69.80;;;;;;5073715;28;20237;-68
2023/05/31 05:04:42;;;;;;;2.63;1.67;;;17.00;69.50;;;;;;5074020;28;20212;-68
2023/05/31 05:07:08;;;;;;;4.00;1.88;;;17.10;68.70;;;;;;5073766;28;20204;-68
2023/05/31 05:09:35;;;;;;;3.70;1.90;;;17.30;68.40;;;;;;5074402;28;20658;-67
2023/05/31 05:12:04;;;;;;;3.10;1.90;;;17.60;68.80;;;;;;5074501;28;20233;-67
2023/05/31 05:14:32;;;;;;;4.68;2.17;;;18.60;66.40;;;;;;5074884;28;20213;-67
2023/05/31 05:16:58;;;;;;;4.30;1.85;;;20.10;64.70;;;;;;5074709;28;20666;-67
2023/05/31 05:19:25;;;;;;;5.20;1.92;;;22.10;61.70;;;;;;5075194;28;20216;-68
2023/05/31 05:21:52;;;;;;;2.13;1.60;;;24.20;58.40;;;;;;5075151;28;20266;-68
2023/05/31 05:24:20;;;;;;;5.32;1.63;;;26.20;54.50;;;;;;5074228;28;20201;-68
2023/05/31 05:26:46;;;;;;;4.22;2.45;;;27.20;51.70;;;;;;5073684;28;20212;-68
2023/05/31 05:29:14;;;;;;;3.20;2.13;;;27.00;51.40;;;;;;5073852;28;20205;-67
2023/05/31 05:31:41;;;;;;;2.80;1.70;;;26.20;51.90;;;;;;5073380;28;20229;-68
2023/05/31 05:34:09;;;;;;;7.57;1.80;;;25.80;53.30;;;;;;5073439;28;20205;-68
2023/05/31 05:36:36;;;;;;;4.90;1.98;;;26.40;52.30;;;;;;5073297;28;20208;-68
2023/05/31 05:39:06;;;;;;;5.45;1.88;;;27.50;50.60;;;;;;5072974;28;20872;-68
2023/05/31 05:41:32;;;;;;;3.03;1.90;;;28.30;48.10;;;;;;5073309;28;20767;-68
2023/05/31 05:43:59;;;;;;;7.80;2.10;;;28.90;48.10;;;;;;5073372;28;20625;-68
2023/05/31 05:46:27;;;;;;;7.80;4.05;;;29.80;46.50;;;;;;5072949;28;20288;-69
2023/05/31 05:48:54;;;;;;;6.90;2.30;;;30.60;45.80;;;;;;5073127;28;20673;-68
2023/05/31 05:51:21;;;;;;;3.13;1.45;;;31.20;44.60;;;;;;5072909;28;20239;-68
2023/05/31 05:53:48;;;;;;;2.75;1.67;;;31.70;44.00;;;;;;5073047;28;20205;-69
2023/05/31 05:56:17;;;;;;;4.93;1.70;;;32.30;43.00;;;;;;5072758;28;20705;-68
2023/05/31 05:58:45;;;;;;;3.92;1.67;;;32.60;42.80;;;;;;5073036;28;20292;-64
2023/05/31 06:01:18;;;;;;;4.15;2.00;;;32.90;41.70;;;;;;5072562;28;20678;-68
2023/05/31 06:03:47;;;;;;;3.92;1.67;;;33.00;41.70;;;;;;5073186;28;20215;-69
2023/05/31 06:06:14;;;;;;;5.43;2.10;;;32.90;41.90;;;;;;5072234;28;20248;-68
2023/05/31 06:08:41;;;;;;;3.58;1.58;;;32.50;41.70;;;;;;5072818;28;20201;-68
2023/05/31 06:11:07;;;;;;;5.32;1.70;;;32.50;41.90;;;;;;5072473;28;20228;-68
2023/05/31 06:13:34;;;;;;;6.90;2.30;;;32.60;42.10;;;;;;5072795;28;20616;-68
2023/05/31 06:16:01;;;;;;;5.20;2.00;;;32.60;41.80;;;;;;5072443;28;20209;-68
2023/05/31 06:18:27;;;;;;;3.92;1.67;;;32.50;42.00;;;;;;5072341;28;20250;-67
2023/05/31 06:20:55;;;;;;;5.80;2.05;;;32.70;41.50;;;;;;5072607;28;20278;-68
2023/05/31 06:23:22;;;;;;;6.25;2.00;;;32.40;41.70;;;;;;5072582;28;20212;-68
2023/05/31 06:25:49;;;;;;;3.28;1.70;;;32.20;41.50;;;;;;5072154;28;20208;-69
2023/05/31 06:28:16;;;;;;;7.03;2.13;;;31.70;42.20;;;;;;5072577;28;20308;-67
2023/05/31 06:30:42;;;;;;;4.97;1.67;;;31.80;42.10;;;;;;5072388;28;20635;-68
2023/05/31 06:33:09;;;;;;;4.70;2.15;;;31.70;42.20;;;;;;5072086;28;20291;-68
2023/05/31 06:35:36;;;;;;;5.05;2.03;;;31.70;42.30;;;;;;5072256;28;20247;-67
2023/05/31 06:38:04;;;;;;;6.00;1.73;;;32.10;42.10;;;;;;5072232;28;20212;-68
2023/05/31 06:40:31;;;;;;;5.20;1.85;;;32.40;41.60;;;;;;5072222;28;20682;-67
2023/05/31 06:42:57;;;;;;;3.53;2.08;;;32.90;41.40;;;;;;5072073;28;20204;-68
2023/05/31 06:45:25;;;;;;;2.92;2.10;;;33.40;40.70;;;;;;5072332;28;20209;-68
2023/05/31 06:47:52;;;;;;;2.70;1.90;;;33.70;40.40;;;;;;5071929;28;20211;-68
2023/05/31 06:50:18;;;;;;;4.93;1.95;;;34.00;39.90;;;;;;5071874;28;20204;-68
2023/05/31 06:52:45;;;;;;;5.60;1.73;;;34.00;39.80;;;;;;5071602;28;20233;-68
2023/05/31 06:55:13;;;;;;;2.58;1.60;;;34.40;39.80;;;;;;5071689;28;20288;-67
2023/05/31 06:57:40;;;;;;;5.32;1.85;;;34.80;39.50;;;;;;5071575;28;20296;-66
2023/05/31 07:00:08;;;;;;;3.22;1.83;;;35.00;39.20;;;;;;5071459;28;20702;-65
2023/05/31 07:02:36;;;;;;;3.17;1.85;;;35.20;38.70;;;;;;5071758;28;20281;-67
2023/05/31 07:05:02;;;;;;;6.13;1.70;;;35.40;38.70;;;;;;5071760;28;20353;-67
2023/05/31 07:07:29;;;;;;;7.57;2.08;;;35.50;38.10;;;;;;5070934;28;20205;-66
2023/05/31 07:09:56;;;;;;;3.97;1.95;;;35.40;38.70;;;;;;5071575;28;20274;-67
2023/05/31 07:12:24;;;;;;;9.00;2.10;;;35.50;37.90;;;;;;5082617;22;20228;-61
2023/05/31 07:14:51;;;;;;;4.55;2.00;;;35.20;38.90;;;;;;5063601;28;20231;-60
2023/05/31 07:17:17;;;;;;;3.83;1.80;;;35.20;38.30;;;;;;5071334;28;20217;-61
2023/05/31 07:19:45;;;;;;;3.83;1.70;;;35.60;37.50;;;;;;5071485;28;20213;-61
2023/05/31 07:22:13;;;;;;;3.80;2.10;;;35.40;37.70;;;;;;5071359;28;20224;-61
2023/05/31 07:24:40;;;;;;;6.88;2.15;;;34.30;38.50;;;;;;5071515;28;20215;-62
2023/05/31 07:27:08;;;;;;;5.50;1.90;;;34.20;39.00;;;;;;5070921;28;20653;-62
2023/05/31 07:29:36;;;;;;;2.85;1.75;;;34.50;38.90;;;;;;5071182;28;20209;-62
2023/05/31 07:32:03;;;;;;;4.13;2.35;;;35.10;38.10;;;;;;5071320;28;20274;-62
2023/05/31 07:34:30;;;;;;;2.95;1.65;;;35.50;37.30;;;;;;5071149;28;20241;-61
2023/05/31 07:36:57;;;;;;;7.30;1.70;;;35.50;37.20;;;;;;5071187;28;20223;-61
2023/05/31 07:39:24;;;;;;;5.53;2.10;;;34.70;38.30;;;;;;5071179;28;20204;-60
2023/05/31 07:41:51;;;;;;;4.65;1.73;;;34.90;38.40;;;;;;5071179;28;20217;-61
2023/05/31 07:44:19;;;;;;;4.85;2.00;;;35.30;37.70;;;;;;5071350;28;20208;-61
2023/05/31 07:46:47;;;;;;;3.58;2.00;;;35.70;37.40;;;;;;5070936;28;20529;-61
2023/05/31 07:49:14;;;;;;;5.20;1.83;;;36.00;37.20;;;;;;5071208;28;20211;-61
2023/05/31 07:51:41;;;;;;;3.92;1.83;;;36.20;37.10;;;;;;5070875;28;20233;-61
2023/05/31 07:54:08;;;;;;;5.82;1.95;;;35.90;37.00;;;;;;5070899;28;20299;-59
2023/05/31 07:56:35;;;;;;;4.45;1.77;;;35.70;37.80;;;;;;5070791;28;20269;-61
2023/05/31 07:59:02;;;;;;;3.83;2.08;;;35.60;37.20;;;;;;5071283;28;20209;-61
2023/05/31 08:01:29;;;;;;;3.60;1.70;;;36.00;37.20;;;;;;5071197;28;20223;-61
2023/05/31 08:04:07;;;;;;;5.18;1.63;;;36.10;36.70;;;;;;5071206;28;20204;-61
2023/05/31 08:06:33;;;;;;;4.55;2.13;;;35.80;37.00;;;;;;5071372;28;20212;-62
2023/05/31 08:09:00;;;;;;;9.15;2.10;;;35.40;37.20;;;;;;5070808;28;20214;-60
2023/05/31 08:11:27;;;;;;;7.35;2.03;;;34.70;38.30;;;;;;5070739;28;20263;-61
2023/05/31 08:13:54;;;;;;;4.47;1.92;;;34.50;38.50;;;;;;5071230;28;20212;-63
2023/05/31 08:16:21;;;;;;;3.50;2.20;;;34.40;38.60;;;;;;5070896;28;20620;-61
2023/05/31 08:18:48;;;;;;;4.65;1.83;;;34.40;39.00;;;;;;5071755;28;20209;-63
2023/05/31 08:21:16;;;;;;;4.60;1.95;;;34.60;38.60;;;;;;5075005;28;20252;-62
2023/05/31 08:23:43;;;;;;;3.95;1.77;;;34.60;38.20;;;;;;5074732;28;20678;-62
2023/05/31 08:26:10;;;;;;;3.50;2.10;;;34.30;38.60;;;;;;5074454;28;20741;-62
2023/05/31 08:28:37;;;;;;;6.43;1.92;;;34.30;38.80;;;;;;5074623;28;20295;-61
2023/05/31 08:31:04;;;;;;;6.38;2.00;;;34.20;39.50;;;;;;5074394;28;20225;-61
2023/05/31 08:33:32;;;;;;;4.35;1.83;;;33.70;39.20;;;;;;5074579;28;20207;-60
2023/05/31 08:35:59;;;;;;;7.85;2.03;;;33.80;38.90;;;;;;5074046;28;20258;-62
2023/05/31 08:38:28;;;;;;;4.53;2.28;;;33.30;39.50;;;;;;5074697;28;20201;-62
2023/05/31 08:40:57;;;;;;;5.97;2.40;;;32.70;40.70;;;;;;5074536;28;20205;-63
2023/05/31 08:43:26;;;;;;;7.00;2.28;;;32.40;41.30;;;;;;5074327;28;20204;-61
2023/05/31 08:45:53;;;;;;;7.20;2.22;;;32.00;42.00;;;;;;5073972;28;20209;-61
2023/05/31 08:48:25;;;;;;;5.00;2.15;;;31.50;42.60;;;;;;5074182;28;20205;-61
2023/05/31 08:50:53;;;;;;;5.50;1.85;;;30.50;43.50;;;;;;5074108;28;20714;-62
2023/05/31 08:53:21;;;;;;;4.38;2.00;;;29.10;45.50;;;;;;5074059;28;20205;-62
2023/05/31 08:55:50;;;;;;;3.72;2.38;;;27.70;46.60;;;;;;5074238;28;20205;-61
2023/05/31 08:58:18;;;;;;;5.03;2.30;;;26.70;47.70;;;;;;5074039;28;20208;-62
2023/05/31 09:00:45;;;;;;;5.43;2.00;;;25.90;49.80;;;;;;5073848;28;20208;-62
2023/05/31 09:03:12;;;;;;;7.10;1.95;;;25.20;51.00;;;;;;5073976;28;20212;-62
2023/05/31 09:05:39;;;;;;;6.32;2.13;;;24.70;51.60;;;;;;5074176;28;20208;-61
2023/05/31 09:08:06;;;;;;;7.00;2.20;;;24.40;52.10;;;;;;5074244;28;20213;-62
2023/05/31 09:10:33;;;;;;;5.43;1.70;;;24.20;51.60;;;;;;5073809;28;20276;-62
2023/05/31 09:13:01;;;;;;;5.55;2.28;;;24.00;52.30;;;;;;5073774;28;20229;-60
2023/05/31 09:15:28;;;;;;;7.97;1.90;;;23.90;52.70;;;;;;5073718;28;20209;-61
2023/05/31 09:17:57;;;;;;;4.95;2.00;;;23.90;52.80;;;;;;5073923;28;20209;-64
2023/05/31 09:20:32;;;;;;;8.45;2.00;;;23.90;52.90;;;;;;5073519;28;20594;-62
2023/05/31 09:23:03;;;;;;;6.50;2.20;;;23.90;52.40;;;;;;5073516;28;20638;-62
2023/05/31 09:25:43;;;;;;;4.20;2.25;;;23.90;52.60;;;;;;5073710;28;20209;-60
2023/05/31 09:28:12;;;;;;;4.78;2.22;;;23.80;52.60;;;;;;5073567;28;20209;-60
2023/05/31 09:30:38;;;;;;;6.55;1.90;;;23.80;53.40;;;;;;5073246;28;20685;-61
2023/05/31 09:33:06;;;;;;;4.80;2.17;;;23.70;52.50;;;;;;5073648;28;20239;-62
2023/05/31 09:35:32;;;;;;;4.80;2.22;;;23.70;52.20;;;;;;5073395;28;20204;-62
2023/05/31 09:38:04;;;;;;;3.97;2.20;;;23.80;52.60;;;;;;5068335;28;20197;-65
2023/05/31 09:40:32;;;;;;;4.80;2.22;;;23.90;53.50;;;;;;5052208;28;20228;-62
2023/05/31 09:42:59;;;;;;;3.53;2.03;;;23.90;52.90;;;;;;5053016;28;20222;-62
2023/05/31 09:45:28;;;;;;;6.07;2.10;;;24.00;51.10;;;;;;5053367;28;20682;-62
2023/05/31 09:47:55;;;;;;;5.78;2.20;;;24.00;51.40;;;;;;5055189;28;20209;-63
2023/05/31 09:50:23;;;;;;;2.70;1.90;;;24.00;52.00;;;;;;5073410;28;20204;-64
2023/05/31 09:52:56;;;;;;;5.22;2.17;;;24.00;51.70;;;;;;5073392;28;20229;-62
2023/05/31 09:55:22;;;;;;;5.88;1.90;;;24.10;52.50;;;;;;5072525;28;20286;-61
2023/05/31 09:57:55;;;;;;;6.47;1.67;;;24.20;52.50;;;;;;5072422;28;20267;-63
2023/05/31 10:00:22;;;;;;;6.53;2.13;;;24.30;51.30;;;;;;5073180;28;20250;-64
2023/05/31 10:02:51;;;;;;;4.65;2.00;;;24.30;52.10;;;;;;5073280;28;20619;-64
2023/05/31 10:05:19;;;;;;;3.20;2.00;;;24.30;51.00;;;;;;5072544;28;20207;-65
2023/05/31 10:07:48;;;;;;;3.35;1.90;;;24.40;51.00;;;;;;5072419;28;20299;-65
2023/05/31 10:10:19;;;;;;;4.57;1.77;;;24.40;50.70;;;;;;5072586;28;20208;-62
2023/05/31 10:12:50;;;;;;;3.58;2.10;;;24.50;50.30;;;;;;5071960;28;20713;-63
2023/05/31 10:15:20;;;;;;;5.10;2.05;;;24.60;50.60;;;;;;5061549;28;20255;-64
2023/05/31 10:17:56;;;;;;;6.65;2.22;;;24.60;50.70;;;;;;5043920;28;20206;-62
2023/05/31 10:20:25;;;;;;;3.38;2.08;;;24.80;51.20;;;;;;5050786;28;20647;-63
2023/05/31 10:22:55;;;;;;;4.07;1.95;;;24.90;51.40;;;;;;5051779;28;20313;-62
2023/05/31 10:25:28;;;;;;;3.30;1.83;;;24.90;50.30;;;;;;5051571;28;20596;-63
2023/05/31 10:28:01;;;;;;;5.05;2.20;;;25.10;50.50;;;;;;5051980;28;20236;-65
2023/05/31 10:30:31;;;;;;;2.72;2.00;;;25.00;50.00;;;;;;5051236;28;20224;-63
2023/05/31 10:33:06;;;;;;;7.57;2.00;;;25.00;50.40;;;;;;5051613;28;20612;-63
2023/05/31 10:35:33;;;;;;;6.45;2.20;;;25.00;49.50;;;;;;5052161;28;20264;-64
2023/05/31 10:38:01;;;;;;;4.22;2.13;;;24.90;49.70;;;;;;5052121;28;20217;-65
2023/05/31 10:40:35;;;;;;;6.70;2.25;;;24.90;49.70;;;;;;5051789;28;20528;-63
2023/05/31 10:43:08;;;;;;;4.18;1.88;;;25.00;50.10;;;;;;5051289;28;20225;-65
2023/05/31 10:45:39;;;;;;;3.60;2.03;;;25.00;50.10;;;;;;5052108;28;20216;-65
2023/05/31 10:48:15;;;;;;;3.53;1.80;;;24.90;49.80;;;;;;5052097;28;20220;-66
2023/05/31 10:50:56;;;;;;;3.08;2.10;;;24.90;49.50;;;;;;5051905;28;20209;-63
2023/05/31 10:53:23;;;;;;;4.68;2.08;;;24.90;49.30;;;;;;5052317;28;20225;-62
2023/05/31 10:55:50;;;;;;;3.60;2.00;;;25.00;49.30;;;;;;5051715;28;20205;-62
2023/05/31 10:58:27;;;;;;;4.28;2.10;;;25.00;49.10;;;;;;5052233;28;20277;-61
2023/05/31 11:00:55;;;;;;;3.53;1.90;;;25.10;48.50;;;;;;5051710;28;20212;-62
2023/05/31 11:03:24;;;;;;;3.03;1.80;;;25.20;45.50;;;;;;5051667;28;20201;-62
2023/05/31 11:05:59;;;;;;;4.35;2.03;;;25.20;46.70;;;;;;5051607;28;20229;-61
2023/05/31 11:08:26;;;;;;;3.47;1.80;;;25.00;47.60;;;;;;5052202;28;20205;-62
2023/05/31 11:10:53;;;;;;;4.80;2.05;;;25.10;48.20;;;;;;5051881;28;20237;-62
2023/05/31 11:13:19;;;;;;;5.78;2.10;;;25.20;48.40;;;;;;5051569;28;20237;-62
2023/05/31 11:15:47;;;;;;;3.90;1.75;;;25.30;47.80;;;;;;5051493;28;20209;-62
2023/05/31 11:18:27;;;;;;;2.67;1.63;;;25.50;47.40;;;;;;5051672;28;20217;-62
2023/05/31 11:20:53;;;;;;;4.47;1.70;;;25.50;47.20;;;;;;5051526;28;20209;-61
2023/05/31 11:23:30;;;;;;;5.00;2.13;;;25.50;47.80;;;;;;5051812;28;20201;-65
2023/05/31 11:26:20;;;;;;;4.88;1.80;;;25.50;48.00;;;;;;5047981;28;20217;-62
2023/05/31 11:28:56;;;;;;;3.60;1.75;;;25.60;44.40;;;;;;5050545;28;20213;-63
2023/05/31 11:31:57;;;;;;;12.27;2.30;;;25.50;45.40;;;;;;5050919;28;20232;-65
2023/05/31 11:34:27;;;;;;;2.30;1.52;;;25.60;45.90;;;;;;5050497;28;20295;-65
2023/05/31 11:36:54;;;;;;;3.35;1.83;;;25.60;45.90;;;;;;5050577;28;20233;-68
2023/05/31 11:39:21;;;;;;;4.38;1.73;;;25.60;45.30;;;;;;5050193;28;20305;-67
2023/05/31 11:41:48;;;;;;;2.40;1.70;;;25.80;45.80;;;;;;5050511;28;20229;-63
2023/05/31 11:44:20;;;;;;;4.00;1.85;;;25.90;44.50;;;;;;5045933;28;20210;-64
2023/05/31 11:46:50;;;;;;;4.30;1.70;;;25.90;45.00;;;;;;5041578;28;20216;-64
2023/05/31 11:49:16;;;;;;;3.42;2.03;;;26.00;45.40;;;;;;5050391;28;20224;-62
2023/05/31 11:51:45;;;;;;;4.85;1.60;;;26.00;44.90;;;;;;5050645;28;20230;-63
2023/05/31 11:54:14;;;;;;;2.80;1.33;;;25.90;44.30;;;;;;5053422;28;20232;-61
2023/05/31 11:56:41;;;;;;;3.85;2.10;;;25.80;44.60;;;;;;5056662;28;20209;-63
2023/05/31 11:59:08;;;;;;;3.38;1.92;;;25.80;44.00;;;;;;5056884;28;20211;-62
2023/05/31 12:01:39;;;;;;;5.05;1.85;;;25.70;44.40;;;;;;5057112;28;20252;-62
2023/05/31 12:04:06;;;;;;;4.45;1.90;;;25.80;43.90;;;;;;5056953;28;20252;-62
2023/05/31 12:06:33;;;;;;;3.03;1.60;;;25.90;44.20;;;;;;5056213;28;20675;-62
2023/05/31 12:09:02;;;;;;;3.45;1.73;;;26.00;43.70;;;;;;5057041;28;20590;-62
2023/05/31 12:11:29;;;;;;;3.35;1.80;;;26.00;44.60;;;;;;5056671;28;20240;-61
2023/05/31 12:13:56;;;;;;;3.22;1.65;;;26.10;44.20;;;;;;5056737;28;20225;-63
2023/05/31 12:16:23;;;;;;;4.75;1.50;;;26.10;43.50;;;;;;5056343;28;20218;-61
2023/05/31 12:18:50;;;;;;;6.10;1.50;;;26.20;43.80;;;;;;5056270;28;20212;-61
2023/05/31 12:21:17;;;;;;;3.55;1.73;;;26.20;42.60;;;;;;5056530;28;20710;-61
2023/05/31 12:23:54;;;;;;;4.03;1.73;;;26.20;41.90;;;;;;5056877;28;20197;-61
2023/05/31 12:26:22;;;;;;;4.20;1.70;;;26.30;41.60;;;;;;5056488;28;20288;-60
2023/05/31 12:28:49;;;;;;;2.78;1.63;;;26.30;41.90;;;;;;5056421;28;20205;-61
2023/05/31 12:31:23;;;;;;;2.22;1.50;;;26.30;42.10;;;;;;5056568;28;20316;-61
2023/05/31 12:34:00;;;;;;;3.25;1.70;;;26.30;42.00;;;;;;5056406;28;20340;-61
2023/05/31 12:36:27;;;;;;;2.42;1.50;;;26.40;41.90;;;;;;5056287;28;20710;-59
2023/05/31 12:38:55;;;;;;;2.30;1.63;;;26.50;41.30;;;;;;5056385;28;20210;-60
2023/05/31 12:41:23;;;;;;;4.47;1.58;;;26.50;40.70;;;;;;5056895;28;20229;-64
2023/05/31 12:43:50;;;;;;;2.50;1.55;;;26.50;41.00;;;;;;5056763;28;20197;-64
2023/05/31 12:46:17;;;;;;;5.72;1.58;;;26.60;40.70;;;;;;5055941;28;20255;-64
2023/05/31 12:48:47;;;;;;;3.08;1.77;;;26.60;41.40;;;;;;5056521;28;20794;-64
2023/05/31 12:51:14;;;;;;;4.65;1.38;;;26.60;41.10;;;;;;5056758;28;20236;-63
2023/05/31 12:53:41;;;;;;;3.05;1.83;;;26.60;41.70;;;;;;5056961;28;20264;-66